sensor_id;sensor_type;location;lat;lon;timestamp;pressure;altitude;pressure_sealevel;temperature;humidity
10510;BME280;5303;53.266;10.410;2023-04-24T00:00:05;99790.31;;;11.94;78.10
10510;BME280;5303;53.266;10.410;2023-04-24T00:02:31;99781.56;;;11.92;77.88
10510;BME280;5303;53.266;10.410;2023-04-24T00:04:57;99781.47;;;11.95;77.92
10510;BME280;5303;53.266;10.410;2023-04-24T00:07:27;99793.94;;;11.90;77.81
10510;BME280;5303;53.266;10.410;2023-04-24T00:09:52;99785.25;;;11.85;77.94
10510;BME280;5303;53.266;10.410;2023-04-24T00:12:18;99784.47;;;11.81;78.07
10510;BME280;5303;53.266;10.410;2023-04-24T00:14:43;99779.28;;;11.77;78.27
10510;BME280;5303;53.266;10.410;2023-04-24T00:17:08;99786.44;;;11.72;78.37
10510;BME280;5303;53.266;10.410;2023-04-24T00:19:33;99774.31;;;11.63;78.59
10510;BME280;5303;53.266;10.410;2023-04-24T00:21:59;99776.16;;;11.60;78.81
10510;BME280;5303;53.266;10.410;2023-04-24T00:24:24;99774.50;;;11.56;78.98
10510;BME280;5303;53.266;10.410;2023-04-24T00:26:50;99782.56;;;11.49;79.11
10510;BME280;5303;53.266;10.410;2023-04-24T00:29:15;99781.81;;;11.44;79.33
10510;BME280;5303;53.266;10.410;2023-04-24T00:31:40;99780.13;;;11.40;79.40
10510;BME280;5303;53.266;10.410;2023-04-24T00:34:06;99778.53;;;11.33;79.59
10510;BME280;5303;53.266;10.410;2023-04-24T00:36:31;99773.38;;;11.29;79.77
10510;BME280;5303;53.266;10.410;2023-04-24T00:38:57;99777.84;;;11.25;79.89
10510;BME280;5303;53.266;10.410;2023-04-24T00:41:24;99779.66;;;11.23;80.01
10510;BME280;5303;53.266;10.410;2023-04-24T00:43:50;99777.00;;;11.24;80.21
10510;BME280;5303;53.266;10.410;2023-04-24T00:46:16;99765.56;;;11.24;80.43
10510;BME280;5303;53.266;10.410;2023-04-24T00:48:42;99758.41;;;11.29;80.32
10510;BME280;5303;53.266;10.410;2023-04-24T00:51:08;99752.22;;;11.30;80.40
10510;BME280;5303;53.266;10.410;2023-04-24T00:53:33;99751.25;;;11.33;80.29
10510;BME280;5303;53.266;10.410;2023-04-24T00:55:59;99749.50;;;11.33;80.34
10510;BME280;5303;53.266;10.410;2023-04-24T00:58:25;99752.13;;;11.35;80.40
10510;BME280;5303;53.266;10.410;2023-04-24T01:00:52;99743.28;;;11.36;80.37
10510;BME280;5303;53.266;10.410;2023-04-24T01:03:22;99752.06;;;11.36;80.40
10510;BME280;5303;53.266;10.410;2023-04-24T01:05:48;99758.25;;;11.35;80.59
10510;BME280;5303;53.266;10.410;2023-04-24T01:08:14;99765.28;;;11.36;80.56
10510;BME280;5303;53.266;10.410;2023-04-24T01:10:41;99769.63;;;11.39;80.21
10510;BME280;5303;53.266;10.410;2023-04-24T01:13:08;99759.06;;;11.39;80.27
10510;BME280;5303;53.266;10.410;2023-04-24T01:15:34;99751.97;;;11.41;80.31
10510;BME280;5303;53.266;10.410;2023-04-24T01:17:59;99755.50;;;11.40;80.14
10510;BME280;5303;53.266;10.410;2023-04-24T01:20:25;99756.53;;;11.34;80.01
10510;BME280;5303;53.266;10.410;2023-04-24T01:22:51;99760.13;;;11.30;80.00
10510;BME280;5303;53.266;10.410;2023-04-24T01:25:17;99757.56;;;11.27;79.97
10510;BME280;5303;53.266;10.410;2023-04-24T01:27:42;99750.59;;;11.23;79.96
10510;BME280;5303;53.266;10.410;2023-04-24T01:30:08;99756.06;;;11.15;79.84
10510;BME280;5303;53.266;10.410;2023-04-24T01:32:35;99754.38;;;11.11;80.19
10510;BME280;5303;53.266;10.410;2023-04-24T01:35:01;99751.94;;;11.04;80.21
10510;BME280;5303;53.266;10.410;2023-04-24T01:37:26;99753.81;;;10.99;80.29
10510;BME280;5303;53.266;10.410;2023-04-24T01:39:52;99752.19;;;10.91;80.25
10510;BME280;5303;53.266;10.410;2023-04-24T01:42:17;99748.88;;;10.83;80.37
10510;BME280;5303;53.266;10.410;2023-04-24T01:44:43;99752.44;;;10.79;80.47
10510;BME280;5303;53.266;10.410;2023-04-24T01:47:08;99755.19;;;10.75;80.42
10510;BME280;5303;53.266;10.410;2023-04-24T01:49:34;99747.44;;;10.67;80.68
10510;BME280;5303;53.266;10.410;2023-04-24T01:51:59;99744.00;;;10.62;80.72
10510;BME280;5303;53.266;10.410;2023-04-24T01:54:24;99743.31;;;10.54;80.93
10510;BME280;5303;53.266;10.410;2023-04-24T01:56:50;99745.16;;;10.49;80.98
10510;BME280;5303;53.266;10.410;2023-04-24T01:59:17;99739.13;;;10.44;80.96
10510;BME280;5303;53.266;10.410;2023-04-24T02:01:42;99733.88;;;10.41;81.07
10510;BME280;5303;53.266;10.410;2023-04-24T02:04:07;99732.16;;;10.39;81.09
10510;BME280;5303;53.266;10.410;2023-04-24T02:06:33;99733.88;;;10.41;81.07
10510;BME280;5303;53.266;10.410;2023-04-24T02:08:58;99741.88;;;10.37;81.55
10510;BME280;5303;53.266;10.410;2023-04-24T02:11:24;99734.94;;;10.33;80.97
10510;BME280;5303;53.266;10.410;2023-04-24T02:13:50;99738.47;;;10.31;81.51
10510;BME280;5303;53.266;10.410;2023-04-24T02:16:16;99735.88;;;10.29;81.29
10510;BME280;5303;53.266;10.410;2023-04-24T02:18:41;99739.44;;;10.27;81.36
10510;BME280;5303;53.266;10.410;2023-04-24T02:21:07;99731.56;;;10.25;81.48
10510;BME280;5303;53.266;10.410;2023-04-24T02:23:32;99723.72;;;10.22;81.29
10510;BME280;5303;53.266;10.410;2023-04-24T02:25:57;99720.19;;;10.20;81.82
10510;BME280;5303;53.266;10.410;2023-04-24T02:28:24;99729.06;;;10.16;81.52
10510;BME280;5303;53.266;10.410;2023-04-24T02:30:50;99728.28;;;10.11;81.93
10510;BME280;5303;53.266;10.410;2023-04-24T02:33:15;99723.97;;;10.07;81.40
10510;BME280;5303;53.266;10.410;2023-04-24T02:35:40;99727.50;;;10.06;81.97
10510;BME280;5303;53.266;10.410;2023-04-24T02:38:06;99718.78;;;10.02;81.86
10510;BME280;5303;53.266;10.410;2023-04-24T02:40:31;99729.31;;;10.04;82.24
10510;BME280;5303;53.266;10.410;2023-04-24T02:42:56;99731.94;;;10.04;81.91
10510;BME280;5303;53.266;10.410;2023-04-24T02:45:22;99727.59;;;10.01;82.08
10510;BME280;5303;53.266;10.410;2023-04-24T02:47:47;99734.59;;;10.01;81.99
10510;BME280;5303;53.266;10.410;2023-04-24T02:50:12;99732.03;;;9.98;82.24
10510;BME280;5303;53.266;10.410;2023-04-24T02:52:37;99727.03;;;10.33;79.95
10510;BME280;5303;53.266;10.410;2023-04-24T02:55:04;99726.88;;;10.39;78.90
10510;BME280;5303;53.266;10.410;2023-04-24T02:57:30;99721.34;;;10.52;77.63
10510;BME280;5303;53.266;10.410;2023-04-24T02:59:55;99736.31;;;10.53;77.13
10510;BME280;5303;53.266;10.410;2023-04-24T03:02:20;99737.31;;;10.46;77.34
10510;BME280;5303;53.266;10.410;2023-04-24T03:04:46;99742.59;;;10.46;77.17
10510;BME280;5303;53.266;10.410;2023-04-24T03:07:13;99742.78;;;10.36;77.63
10510;BME280;5303;53.266;10.410;2023-04-24T03:09:40;99744.69;;;10.28;77.83
10510;BME280;5303;53.266;10.410;2023-04-24T03:12:05;99734.19;;;10.25;77.79
10510;BME280;5303;53.266;10.410;2023-04-24T03:14:30;99741.22;;;10.26;77.91
10510;BME280;5303;53.266;10.410;2023-04-24T03:16:56;99728.88;;;10.28;77.83
10510;BME280;5303;53.266;10.410;2023-04-24T03:19:22;99741.22;;;10.26;78.22
10510;BME280;5303;53.266;10.410;2023-04-24T03:21:47;99743.88;;;10.25;77.49
10510;BME280;5303;53.266;10.410;2023-04-24T03:24:12;99737.69;;;10.27;77.44
10510;BME280;5303;53.266;10.410;2023-04-24T03:26:38;99736.00;;;10.20;77.27
10510;BME280;5303;53.266;10.410;2023-04-24T03:29:03;99738.84;;;10.09;77.59
10510;BME280;5303;53.266;10.410;2023-04-24T03:31:28;99740.66;;;10.07;77.84
10510;BME280;5303;53.266;10.410;2023-04-24T03:33:53;99736.09;;;10.16;76.82
10510;BME280;5303;53.266;10.410;2023-04-24T03:36:19;99732.84;;;10.03;76.74
10510;BME280;5303;53.266;10.410;2023-04-24T03:38:45;99735.41;;;10.06;77.08
10510;BME280;5303;53.266;10.410;2023-04-24T03:41:10;99730.16;;;10.04;76.17
10510;BME280;5303;53.266;10.410;2023-04-24T03:43:36;99726.84;;;9.95;76.25
10510;BME280;5303;53.266;10.410;2023-04-24T03:46:02;99726.91;;;9.92;76.43
10510;BME280;5303;53.266;10.410;2023-04-24T03:48:28;99724.34;;;9.86;76.58
10510;BME280;5303;53.266;10.410;2023-04-24T03:50:53;99727.94;;;9.80;76.81
10510;BME280;5303;53.266;10.410;2023-04-24T03:53:18;99732.31;;;9.82;76.10
10510;BME280;5303;53.266;10.410;2023-04-24T03:55:44;99724.41;;;9.82;75.54
10510;BME280;5303;53.266;10.410;2023-04-24T03:58:10;99725.41;;;9.75;75.55
10510;BME280;5303;53.266;10.410;2023-04-24T04:00:36;99729.00;;;9.71;75.20
10510;BME280;5303;53.266;10.410;2023-04-24T04:03:02;99724.56;;;9.73;75.12
10510;BME280;5303;53.266;10.410;2023-04-24T04:05:28;99728.09;;;9.72;74.87
10510;BME280;5303;53.266;10.410;2023-04-24T04:07:53;99727.34;;;9.66;74.77
10510;BME280;5303;53.266;10.410;2023-04-24T04:10:18;99735.28;;;9.63;75.10
10510;BME280;5303;53.266;10.410;2023-04-24T04:12:43;99727.47;;;9.57;75.79
10510;BME280;5303;53.266;10.410;2023-04-24T04:15:09;99740.66;;;9.55;75.72
10510;BME280;5303;53.266;10.410;2023-04-24T04:17:34;99732.88;;;9.50;75.25
10510;BME280;5303;53.266;10.410;2023-04-24T04:20:00;99739.88;;;9.48;75.68
10510;BME280;5303;53.266;10.410;2023-04-24T04:22:26;99740.88;;;9.43;75.71
10510;BME280;5303;53.266;10.410;2023-04-24T04:24:52;99744.44;;;9.39;75.90
10510;BME280;5303;53.266;10.410;2023-04-24T04:27:17;99737.41;;;9.41;75.96
10510;BME280;5303;53.266;10.410;2023-04-24T04:29:44;99741.78;;;9.39;75.96
10510;BME280;5303;53.266;10.410;2023-04-24T04:32:09;99747.06;;;9.39;76.10
10510;BME280;5303;53.266;10.410;2023-04-24T04:34:34;99747.09;;;9.37;76.03
10510;BME280;5303;53.266;10.410;2023-04-24T04:37:02;99733.09;;;9.35;76.58
10510;BME280;5303;53.266;10.410;2023-04-24T04:39:27;99729.56;;;9.36;75.83
10510;BME280;5303;53.266;10.410;2023-04-24T04:41:53;99718.22;;;9.33;76.32
10510;BME280;5303;53.266;10.410;2023-04-24T04:44:19;99730.50;;;9.32;76.89
10510;BME280;5303;53.266;10.410;2023-04-24T04:46:44;99728.75;;;9.33;76.84
10510;BME280;5303;53.266;10.410;2023-04-24T04:49:09;99724.38;;;9.32;76.80
10510;BME280;5303;53.266;10.410;2023-04-24T04:51:36;99731.41;;;9.31;76.68
10510;BME280;5303;53.266;10.410;2023-04-24T04:54:01;99729.66;;;9.32;76.88
10510;BME280;5303;53.266;10.410;2023-04-24T04:56:26;99738.38;;;9.34;76.80
10510;BME280;5303;53.266;10.410;2023-04-24T04:58:52;99730.47;;;9.34;76.84
10510;BME280;5303;53.266;10.410;2023-04-24T05:01:17;99725.16;;;9.37;76.86
10510;BME280;5303;53.266;10.410;2023-04-24T05:03:42;99719.84;;;9.40;76.71
10510;BME280;5303;53.266;10.410;2023-04-24T05:06:08;99726.00;;;9.39;76.66
10510;BME280;5303;53.266;10.410;2023-04-24T05:08:33;99726.88;;;9.41;76.84
10510;BME280;5303;53.266;10.410;2023-04-24T05:10:58;99726.81;;;9.44;77.09
10510;BME280;5303;53.266;10.410;2023-04-24T05:13:23;99724.97;;;9.49;77.24
10510;BME280;5303;53.266;10.410;2023-04-24T05:15:49;99725.75;;;9.56;76.52
10510;BME280;5303;53.266;10.410;2023-04-24T05:18:14;99728.28;;;9.60;76.53
10510;BME280;5303;53.266;10.410;2023-04-24T05:20:40;99729.06;;;9.67;76.79
10510;BME280;5303;53.266;10.410;2023-04-24T05:23:08;99728.09;;;9.72;75.76
10510;BME280;5303;53.266;10.410;2023-04-24T05:25:33;99731.34;;;9.87;75.14
10510;BME280;5303;53.266;10.410;2023-04-24T05:28:00;99732.97;;;9.95;74.68
10510;BME280;5303;53.266;10.410;2023-04-24T05:30:25;99731.09;;;10.02;74.80
10510;BME280;5303;53.266;10.410;2023-04-24T05:32:52;99738.00;;;10.07;74.69
10510;BME280;5303;53.266;10.410;2023-04-24T05:35:18;99742.16;;;10.21;73.88
10510;BME280;5303;53.266;10.410;2023-04-24T05:37:44;99746.59;;;10.19;74.27
10510;BME280;5303;53.266;10.410;2023-04-24T05:40:09;99750.03;;;10.25;74.51
10510;BME280;5303;53.266;10.410;2023-04-24T05:42:35;99749.72;;;10.41;72.85
10510;BME280;5303;53.266;10.410;2023-04-24T05:45:00;99758.59;;;10.36;73.17
10510;BME280;5303;53.266;10.410;2023-04-24T05:47:26;99757.41;;;10.53;72.46
10510;BME280;5303;53.266;10.410;2023-04-24T05:49:52;99751.00;;;10.64;70.27
10510;BME280;5303;53.266;10.410;2023-04-24T05:52:18;99751.91;;;10.63;70.46
10510;BME280;5303;53.266;10.410;2023-04-24T05:54:43;99751.88;;;10.65;70.57
10510;BME280;5303;53.266;10.410;2023-04-24T05:57:09;99749.97;;;10.72;70.29
10510;BME280;5303;53.266;10.410;2023-04-24T05:59:36;99751.63;;;10.77;69.29
10510;BME280;5303;53.266;10.410;2023-04-24T06:02:03;99750.66;;;10.81;69.48
10510;BME280;5303;53.266;10.410;2023-04-24T06:04:28;99747.81;;;10.90;69.08
10510;BME280;5303;53.266;10.410;2023-04-24T06:06:53;99757.41;;;10.94;68.29
10510;BME280;5303;53.266;10.410;2023-04-24T06:09:22;99748.25;;;11.11;66.91
10510;BME280;5303;53.266;10.410;2023-04-24T06:11:47;99750.13;;;11.06;67.52
10510;BME280;5303;53.266;10.410;2023-04-24T06:14:12;99756.75;;;11.25;66.32
10510;BME280;5303;53.266;10.410;2023-04-24T06:16:38;99758.41;;;11.29;65.56
10510;BME280;5303;53.266;10.410;2023-04-24T06:19:04;99760.91;;;11.35;66.18
10510;BME280;5303;53.266;10.410;2023-04-24T06:21:29;99766.19;;;11.35;65.60
10510;BME280;5303;53.266;10.410;2023-04-24T06:23:56;99757.41;;;11.35;66.05
10510;BME280;5303;53.266;10.410;2023-04-24T06:26:21;99758.28;;;11.34;66.30
10510;BME280;5303;53.266;10.410;2023-04-24T06:28:47;99771.47;;;11.34;66.57
10510;BME280;5303;53.266;10.410;2023-04-24T06:31:12;99758.88;;;11.46;65.79
10510;BME280;5303;53.266;10.410;2023-04-24T06:33:37;99756.16;;;11.49;66.22
10510;BME280;5303;53.266;10.410;2023-04-24T06:36:03;99744.44;;;11.61;65.50
10510;BME280;5303;53.266;10.410;2023-04-24T06:38:29;99751.81;;;11.84;64.21
10510;BME280;5303;53.266;10.410;2023-04-24T06:40:54;99745.38;;;11.94;63.50
10510;BME280;5303;53.266;10.410;2023-04-24T06:43:20;99752.56;;;11.89;64.10
10510;BME280;5303;53.266;10.410;2023-04-24T06:45:45;99747.25;;;11.91;64.51
10510;BME280;5303;53.266;10.410;2023-04-24T06:48:12;99751.00;;;12.15;63.06
10510;BME280;5303;53.266;10.410;2023-04-24T06:50:37;99750.25;;;12.11;61.89
10510;BME280;5303;53.266;10.410;2023-04-24T06:53:02;99745.97;;;12.05;63.54
10510;BME280;5303;53.266;10.410;2023-04-24T06:55:28;99753.03;;;12.06;63.00
10510;BME280;5303;53.266;10.410;2023-04-24T06:57:53;99759.00;;;12.13;63.20
10510;BME280;5303;53.266;10.410;2023-04-24T07:00:18;99757.78;;;12.25;62.53
10510;BME280;5303;53.266;10.410;2023-04-24T07:02:44;99754.09;;;12.32;61.04
10510;BME280;5303;53.266;10.410;2023-04-24T07:05:09;99759.38;;;12.32;62.22
10510;BME280;5303;53.266;10.410;2023-04-24T07:07:35;99751.97;;;12.45;61.17
10510;BME280;5303;53.266;10.410;2023-04-24T07:10:04;99760.41;;;12.59;61.38
10510;BME280;5303;53.266;10.410;2023-04-24T07:12:29;99749.69;;;12.63;61.83
10510;BME280;5303;53.266;10.410;2023-04-24T07:14:54;99752.50;;;12.87;60.27
10510;BME280;5303;53.266;10.410;2023-04-24T07:17:20;99754.19;;;12.91;58.85
10510;BME280;5303;53.266;10.410;2023-04-24T07:19:45;99755.66;;;13.01;58.86
10510;BME280;5303;53.266;10.410;2023-04-24T07:22:12;99756.81;;;12.91;58.14
10510;BME280;5303;53.266;10.410;2023-04-24T07:24:44;99752.13;;;13.01;58.61
10510;BME280;5303;53.266;10.410;2023-04-24T07:27:10;99751.91;;;13.08;57.77
10510;BME280;5303;53.266;10.410;2023-04-24T07:29:35;99751.44;;;13.23;57.32
10510;BME280;5303;53.266;10.410;2023-04-24T07:32:01;99756.53;;;13.31;57.81
10510;BME280;5303;53.266;10.410;2023-04-24T07:34:26;99763.78;;;13.24;56.57
10510;BME280;5303;53.266;10.410;2023-04-24T07:36:51;99775.13;;;13.28;57.08
10510;BME280;5303;53.266;10.410;2023-04-24T07:39:17;99774.34;;;13.54;54.76
10510;BME280;5303;53.266;10.410;2023-04-24T07:41:43;99765.28;;;13.61;54.91
10510;BME280;5303;53.266;10.410;2023-04-24T07:44:08;99766.22;;;13.60;55.68
10510;BME280;5303;53.266;10.410;2023-04-24T07:46:33;99758.66;;;13.74;55.05
10510;BME280;5303;53.266;10.410;2023-04-24T07:48:59;99763.13;;;13.99;54.53
10510;BME280;5303;53.266;10.410;2023-04-24T07:51:26;99764.63;;;13.81;55.78
10510;BME280;5303;53.266;10.410;2023-04-24T07:53:53;99763.22;;;13.71;54.36
10510;BME280;5303;53.266;10.410;2023-04-24T07:56:20;99763.84;;;13.77;55.43
10510;BME280;5303;53.266;10.410;2023-04-24T07:58:45;99761.41;;;13.71;55.79
10510;BME280;5303;53.266;10.410;2023-04-24T08:01:10;99775.06;;;13.59;55.32
10510;BME280;5303;53.266;10.410;2023-04-24T08:03:36;99775.66;;;13.67;55.72
10510;BME280;5303;53.266;10.410;2023-04-24T08:06:01;99768.16;;;13.81;55.79
10510;BME280;5303;53.266;10.410;2023-04-24T08:08:26;99775.13;;;13.84;57.15
10510;BME280;5303;53.266;10.410;2023-04-24T08:10:52;99787.22;;;13.93;56.14
10510;BME280;5303;53.266;10.410;2023-04-24T08:13:17;99789.00;;;13.92;56.10
10510;BME280;5303;53.266;10.410;2023-04-24T08:15:42;99789.88;;;13.93;56.41
10510;BME280;5303;53.266;10.410;2023-04-24T08:18:07;99787.91;;;13.98;52.95
10510;BME280;5303;53.266;10.410;2023-04-24T08:20:33;99782.91;;;13.89;54.25
10510;BME280;5303;53.266;10.410;2023-04-24T08:22:58;99788.13;;;13.92;54.17
10510;BME280;5303;53.266;10.410;2023-04-24T08:25:23;99787.56;;;14.08;54.61
10510;BME280;5303;53.266;10.410;2023-04-24T08:27:50;99785.25;;;14.24;53.10
10510;BME280;5303;53.266;10.410;2023-04-24T08:30:15;99785.94;;;14.29;52.93
10510;BME280;5303;53.266;10.410;2023-04-24T08:32:41;99775.13;;;14.35;51.80
10510;BME280;5303;53.266;10.410;2023-04-24T08:35:07;99781.06;;;14.44;51.81
10510;BME280;5303;53.266;10.410;2023-04-24T08:37:34;99794.31;;;14.44;52.65
10510;BME280;5303;53.266;10.410;2023-04-24T08:39:59;99800.69;;;14.64;51.15
10510;BME280;5303;53.266;10.410;2023-04-24T08:42:26;99796.44;;;14.59;51.89
10510;BME280;5303;53.266;10.410;2023-04-24T08:44:54;99792.53;;;14.69;50.47
10510;BME280;5303;53.266;10.410;2023-04-24T08:47:20;99796.31;;;14.63;50.96
10510;BME280;5303;53.266;10.410;2023-04-24T08:49:47;99791.59;;;14.47;49.65
10510;BME280;5303;53.266;10.410;2023-04-24T08:52:13;99796.47;;;14.32;52.86
10510;BME280;5303;53.266;10.410;2023-04-24T08:54:39;99795.69;;;14.30;51.12
10510;BME280;5303;53.266;10.410;2023-04-24T08:57:07;99800.00;;;14.33;50.24
10510;BME280;5303;53.266;10.410;2023-04-24T08:59:33;99798.56;;;14.49;51.61
10510;BME280;5303;53.266;10.410;2023-04-24T09:01:59;99803.16;;;14.69;50.49
10510;BME280;5303;53.266;10.410;2023-04-24T09:04:25;99802.22;;;14.72;50.64
10510;BME280;5303;53.266;10.410;2023-04-24T09:06:52;99802.22;;;14.72;51.55
10510;BME280;5303;53.266;10.410;2023-04-24T09:09:20;99801.16;;;14.76;50.94
10510;BME280;5303;53.266;10.410;2023-04-24T09:11:46;99809.50;;;14.65;51.47
10510;BME280;5303;53.266;10.410;2023-04-24T09:14:11;99810.75;;;14.55;52.33
10510;BME280;5303;53.266;10.410;2023-04-24T09:16:37;99817.50;;;14.12;52.60
10510;BME280;5303;53.266;10.410;2023-04-24T09:19:03;99817.13;;;13.96;53.25
10510;BME280;5303;53.266;10.410;2023-04-24T09:21:35;99826.47;;;13.81;53.33
10510;BME280;5303;53.266;10.410;2023-04-24T09:24:03;99824.97;;;13.73;52.78
10510;BME280;5303;53.266;10.410;2023-04-24T09:26:31;99823.09;;;13.76;53.32
10510;BME280;5303;53.266;10.410;2023-04-24T09:28:57;99827.91;;;13.92;52.91
10510;BME280;5303;53.266;10.410;2023-04-24T09:31:22;99828.72;;;13.94;54.49
10510;BME280;5303;53.266;10.410;2023-04-24T09:33:56;99833.91;;;13.97;54.15
10510;BME280;5303;53.266;10.410;2023-04-24T09:36:32;99835.59;;;13.99;53.40
10510;BME280;5303;53.266;10.410;2023-04-24T09:39:12;99825.97;;;13.97;53.00
10510;BME280;5303;53.266;10.410;2023-04-24T09:42:03;99819.44;;;14.07;53.32
10510;BME280;5303;53.266;10.410;2023-04-24T09:44:28;99818.47;;;14.09;52.31
10510;BME280;5303;53.266;10.410;2023-04-24T09:46:55;99816.41;;;14.18;52.75
10510;BME280;5303;53.266;10.410;2023-04-24T09:49:28;99815.72;;;14.12;52.24
10510;BME280;5303;53.266;10.410;2023-04-24T09:52:10;99824.44;;;14.16;51.82
10510;BME280;5303;53.266;10.410;2023-04-24T09:54:36;99821.16;;;14.08;49.55
10510;BME280;5303;53.266;10.410;2023-04-24T09:57:02;99829.84;;;14.13;50.96
10510;BME280;5303;53.266;10.410;2023-04-24T09:59:27;99828.63;;;13.97;50.16
10510;BME280;5303;53.266;10.410;2023-04-24T10:01:53;99837.72;;;13.90;51.90
10510;BME280;5303;53.266;10.410;2023-04-24T10:04:24;99836.50;;;14.00;53.74
10510;BME280;5303;53.266;10.410;2023-04-24T10:06:52;99831.47;;;14.17;53.14
10510;BME280;5303;53.266;10.410;2023-04-24T10:09:20;99840.44;;;14.39;51.42
10510;BME280;5303;53.266;10.410;2023-04-24T10:11:47;99857.44;;;14.60;50.86
10510;BME280;5303;53.266;10.410;2023-04-24T10:14:15;99848.19;;;14.47;51.56
10510;BME280;5303;53.266;10.410;2023-04-24T10:16:42;99844.53;;;14.50;50.76
10510;BME280;5303;53.266;10.410;2023-04-24T10:19:08;99846.06;;;14.57;50.30
10510;BME280;5303;53.266;10.410;2023-04-24T10:21:34;99844.53;;;14.50;50.54
10510;BME280;5303;53.266;10.410;2023-04-24T10:24:00;99843.78;;;14.71;50.86
10510;BME280;5303;53.266;10.410;2023-04-24T10:26:28;99841.13;;;14.71;49.90
10510;BME280;5303;53.266;10.410;2023-04-24T10:28:54;99838.81;;;14.62;50.24
10510;BME280;5303;53.266;10.410;2023-04-24T10:31:22;99830.56;;;14.45;48.56
10510;BME280;5303;53.266;10.410;2023-04-24T10:33:49;99837.69;;;14.43;50.90
10510;BME280;5303;53.266;10.410;2023-04-24T10:36:15;99846.44;;;14.46;49.75
10510;BME280;5303;53.266;10.410;2023-04-24T10:38:43;99842.81;;;14.49;50.90
10510;BME280;5303;53.266;10.410;2023-04-24T10:41:12;99843.53;;;14.54;50.77
10510;BME280;5303;53.266;10.410;2023-04-24T10:43:44;99852.66;;;14.72;49.92
10510;BME280;5303;53.266;10.410;2023-04-24T10:46:10;99849.44;;;14.62;50.03
10510;BME280;5303;53.266;10.410;2023-04-24T10:48:35;99843.91;;;14.68;49.04
10510;BME280;5303;53.266;10.410;2023-04-24T10:51:11;99842.28;;;14.64;49.50
10510;BME280;5303;53.266;10.410;2023-04-24T10:53:36;99842.38;;;14.61;49.56
10510;BME280;5303;53.266;10.410;2023-04-24T10:56:04;99841.22;;;14.43;49.88
10510;BME280;5303;53.266;10.410;2023-04-24T10:58:41;99834.66;;;14.55;49.87
10510;BME280;5303;53.266;10.410;2023-04-24T11:01:23;99821.66;;;14.72;49.82
10510;BME280;5303;53.266;10.410;2023-04-24T11:04:01;99834.47;;;14.84;50.43
10510;BME280;5303;53.266;10.410;2023-04-24T11:06:33;99838.59;;;14.93;48.89
10510;BME280;5303;53.266;10.410;2023-04-24T11:09:07;99833.91;;;14.99;47.92
10510;BME280;5303;53.266;10.410;2023-04-24T11:11:37;99830.56;;;14.94;46.88
10510;BME280;5303;53.266;10.410;2023-04-24T11:14:08;99835.00;;;14.94;46.71
10510;BME280;5303;53.266;10.410;2023-04-24T11:16:51;99832.41;;;14.92;46.19
10510;BME280;5303;53.266;10.410;2023-04-24T11:21:43;99843.69;;;14.74;47.90
10510;BME280;5303;53.266;10.410;2023-04-24T11:24:49;99841.09;;;14.73;47.46
10510;BME280;5303;53.266;10.410;2023-04-24T11:27:17;99835.56;;;14.79;46.40
10510;BME280;5303;53.266;10.410;2023-04-24T11:29:59;99834.25;;;14.65;46.88
10510;BME280;5303;53.266;10.410;2023-04-24T11:32:38;99838.38;;;14.74;47.24
10510;BME280;5303;53.266;10.410;2023-04-24T11:37:37;99834.97;;;14.95;44.44
10510;BME280;5303;53.266;10.410;2023-04-24T11:40:07;99841.41;;;14.88;43.48
10510;BME280;5303;53.266;10.410;2023-04-24T11:42:40;99834.88;;;14.74;44.28
10510;BME280;5303;53.266;10.410;2023-04-24T11:45:10;99838.16;;;14.80;45.55
10510;BME280;5303;53.266;10.410;2023-04-24T11:47:35;99841.19;;;14.94;45.63
10510;BME280;5303;53.266;10.410;2023-04-24T11:50:01;99828.38;;;15.06;44.72
10510;BME280;5303;53.266;10.410;2023-04-24T11:52:30;99834.81;;;15.23;45.72
10510;BME280;5303;53.266;10.410;2023-04-24T11:54:56;99837.59;;;15.42;44.40
10510;BME280;5303;53.266;10.410;2023-04-24T11:57:25;99844.78;;;15.40;44.48
10510;BME280;5303;53.266;10.410;2023-04-24T11:59:53;99853.72;;;15.38;45.02
10510;BME280;5303;53.266;10.410;2023-04-24T12:02:26;99850.91;;;15.19;46.02
10510;BME280;5303;53.266;10.410;2023-04-24T12:04:52;99850.38;;;15.09;45.72
10510;BME280;5303;53.266;10.410;2023-04-24T12:07:18;99849.28;;;15.15;46.28
10510;BME280;5303;53.266;10.410;2023-04-24T12:09:48;99848.13;;;14.98;47.07
10510;BME280;5303;53.266;10.410;2023-04-24T12:12:15;99847.31;;;14.96;46.57
10510;BME280;5303;53.266;10.410;2023-04-24T12:17:12;99850.63;;;15.03;47.18
10510;BME280;5303;53.266;10.410;2023-04-24T12:19:37;99846.25;;;15.01;46.48
10510;BME280;5303;53.266;10.410;2023-04-24T12:22:05;99849.16;;;15.18;47.16
10510;BME280;5303;53.266;10.410;2023-04-24T12:24:31;99848.44;;;15.14;46.13
10510;BME280;5303;53.266;10.410;2023-04-24T12:26:57;99848.81;;;15.27;47.72
10510;BME280;5303;53.266;10.410;2023-04-24T12:29:23;99846.41;;;15.44;46.50
10510;BME280;5303;53.266;10.410;2023-04-24T12:31:50;99841.38;;;15.60;45.77
10510;BME280;5303;53.266;10.410;2023-04-24T12:34:23;99853.44;;;15.69;47.39
10510;BME280;5303;53.266;10.410;2023-04-24T12:36:50;99858.56;;;15.73;45.50
10510;BME280;5303;53.266;10.410;2023-04-24T12:39:19;99849.63;;;15.76;45.52
10510;BME280;5303;53.266;10.410;2023-04-24T12:41:57;99845.09;;;15.78;45.31
10510;BME280;5303;53.266;10.410;2023-04-24T12:44:32;99846.59;;;15.63;45.50
10510;BME280;5303;53.266;10.410;2023-04-24T12:47:00;99845.34;;;15.72;45.36
10510;BME280;5303;53.266;10.410;2023-04-24T12:49:25;99848.06;;;15.47;46.15
10510;BME280;5303;53.266;10.410;2023-04-24T12:51:51;99846.16;;;15.50;45.36
10510;BME280;5303;53.266;10.410;2023-04-24T12:54:16;99847.63;;;15.36;45.87
10510;BME280;5303;53.266;10.410;2023-04-24T12:56:41;99851.03;;;15.16;46.77
10510;BME280;5303;53.266;10.410;2023-04-24T12:59:07;99855.41;;;14.93;47.00
10510;BME280;5303;53.266;10.410;2023-04-24T13:01:32;99865.19;;;14.40;46.66
10510;BME280;5303;53.266;10.410;2023-04-24T13:03:58;99863.00;;;14.26;48.17
10510;BME280;5303;53.266;10.410;2023-04-24T13:06:23;99867.75;;;13.89;49.11